首页
METAR-TAF:

METAR-TAF

机场 :

North Myrtle Beach, 南卡罗来纳州, 美国

纬度: 33-48-42N, 经度: 078-43-26W, 海拔: 10米

当前天气观测

该预报发布于10分钟前的13:04 UTC
风速4节,风向西转西北
温度 25°C
湿度 89%
气压 1017 hPa
能見度: 2.8公里
少量云层高于1400英尺
散云层高于2600英尺
阴天层高于3100英尺
附近有雷暴, 大雨, 轻雾

METAR: KCRE 171304Z 30004KT 1 3/4SM VCTS +RA BR FEW014 SCT026 OVC031 25/23 A3002 RMK AO1 VIS 3/4V5 LTG DSNT SE AND S P0007 T02500233

时间: 09:14 (13:14 UTC)

预报

该预报发布于6分钟前的13:08 UTC
预报有效从17日的 13点(UTC)到 18日的 12点(UTC)
风速6节,风向西转西北
能見度: 10公里
多云层高于12000英尺
短暂存在
从 17日的 13点(UTC)到 17日的 16点(UTC)
能見度: 3.2公里
散云层高于1500英尺
阴天层高于2500英尺
阵雨, 轻雾
从 17日的 1600点(UTC)
风速10节,风向西南
能見度: 10公里
散云层高于2500英尺
多云层高于4000英尺, 积雨云.
阵雨, 附近有雷暴
从 18日的 0000点(UTC)
风速15节,风向西南
能見度: 10公里
多云层高于4000英尺, 积雨云.
小阵雨, 附近有雷暴
从 18日的 0600点(UTC)
风速10节,风向西南
能見度: 10公里
阴天层高于10000英尺

TAF: KCRE 171308Z 1713/1812 30006KT P6SM BKN120 TEMPO 1713/1716 2SM SHRA BR SCT015 OVC025 FM171600 22010KT P6SM SHRA VCTS SCT025 BKN040CB FM180000 22015KT P6SM -SHRA VCTS BKN040CB FM180600 22010KT P6SM OVC100

超过4000个机场的气象观测和天气预报(METAR&TAF报告)。

可查询的气象台以黄色和红色小点在地图上表示。

将鼠标移到小点上方,可查看气象台名称。

然后点击查看天气观测和预报。

如需切换地图:点击带黑十字的绿色按钮放大地图;点击带横线的绿色按钮缩小地图;或者点击绿色箭头查看邻近地区的地图。


METAR-TAF: